sensor_id;sensor_type;location;lat;lon;timestamp;temperature;humidity
12438;DHT22;6283;51.330;12.374;2023-06-26T00:01:50;22.30;1.00
12438;DHT22;6283;51.330;12.374;2023-06-26T00:04:16;22.30;1.00
12438;DHT22;6283;51.330;12.374;2023-06-26T00:06:41;22.20;1.00
12438;DHT22;6283;51.330;12.374;2023-06-26T00:09:07;22.20;1.00
12438;DHT22;6283;51.330;12.374;2023-06-26T00:11:33;22.20;1.00
12438;DHT22;6283;51.330;12.374;2023-06-26T00:14:00;22.10;1.00
12438;DHT22;6283;51.330;12.374;2023-06-26T00:16:26;22.00;1.00
12438;DHT22;6283;51.330;12.374;2023-06-26T00:18:53;22.10;1.00
12438;DHT22;6283;51.330;12.374;2023-06-26T00:21:18;22.00;1.00
12438;DHT22;6283;51.330;12.374;2023-06-26T00:23:45;22.00;1.00
12438;DHT22;6283;51.330;12.374;2023-06-26T00:26:11;22.00;1.00
12438;DHT22;6283;51.330;12.374;2023-06-26T00:28:37;21.90;1.00
12438;DHT22;6283;51.330;12.374;2023-06-26T00:31:02;21.90;1.00
12438;DHT22;6283;51.330;12.374;2023-06-26T00:33:28;21.90;1.00
12438;DHT22;6283;51.330;12.374;2023-06-26T00:35:54;21.80;1.00
12438;DHT22;6283;51.330;12.374;2023-06-26T00:38:19;21.80;1.00
12438;DHT22;6283;51.330;12.374;2023-06-26T00:40:45;21.80;1.00
12438;DHT22;6283;51.330;12.374;2023-06-26T00:43:11;21.80;1.00
12438;DHT22;6283;51.330;12.374;2023-06-26T00:45:36;21.70;1.00
12438;DHT22;6283;51.330;12.374;2023-06-26T00:48:03;21.70;1.00
12438;DHT22;6283;51.330;12.374;2023-06-26T00:50:28;21.70;1.00
12438;DHT22;6283;51.330;12.374;2023-06-26T00:52:54;21.60;1.00
12438;DHT22;6283;51.330;12.374;2023-06-26T00:55:26;21.60;1.00
12438;DHT22;6283;51.330;12.374;2023-06-26T00:57:52;21.50;1.00
12438;DHT22;6283;51.330;12.374;2023-06-26T01:00:18;21.50;1.00
12438;DHT22;6283;51.330;12.374;2023-06-26T01:02:44;21.50;1.00
12438;DHT22;6283;51.330;12.374;2023-06-26T01:05:10;21.50;1.00
12438;DHT22;6283;51.330;12.374;2023-06-26T01:07:38;21.40;1.00
12438;DHT22;6283;51.330;12.374;2023-06-26T01:10:06;21.40;1.00
12438;DHT22;6283;51.330;12.374;2023-06-26T01:12:33;21.40;1.00
12438;DHT22;6283;51.330;12.374;2023-06-26T01:14:59;21.40;1.00
12438;DHT22;6283;51.330;12.374;2023-06-26T01:17:27;21.40;1.00
12438;DHT22;6283;51.330;12.374;2023-06-26T01:19:59;21.30;1.00
12438;DHT22;6283;51.330;12.374;2023-06-26T01:22:34;21.30;1.00
12438;DHT22;6283;51.330;12.374;2023-06-26T01:25:29;21.30;1.00
12438;DHT22;6283;51.330;12.374;2023-06-26T01:28:07;21.20;1.00
12438;DHT22;6283;51.330;12.374;2023-06-26T01:30:37;21.20;1.00
12438;DHT22;6283;51.330;12.374;2023-06-26T01:33:03;21.20;1.00
12438;DHT22;6283;51.330;12.374;2023-06-26T01:35:29;21.10;1.00
12438;DHT22;6283;51.330;12.374;2023-06-26T01:38:20;21.10;1.00
12438;DHT22;6283;51.330;12.374;2023-06-26T01:40:46;21.10;1.00
12438;DHT22;6283;51.330;12.374;2023-06-26T01:45:51;21.00;1.00
12438;DHT22;6283;51.330;12.374;2023-06-26T01:48:23;21.00;1.00
12438;DHT22;6283;51.330;12.374;2023-06-26T01:50:52;21.00;1.00
12438;DHT22;6283;51.330;12.374;2023-06-26T01:53:21;20.90;1.00
12438;DHT22;6283;51.330;12.374;2023-06-26T01:55:55;20.80;1.00
12438;DHT22;6283;51.330;12.374;2023-06-26T01:58:25;20.80;1.00
12438;DHT22;6283;51.330;12.374;2023-06-26T02:00:51;20.80;1.00
12438;DHT22;6283;51.330;12.374;2023-06-26T02:03:17;20.80;1.00
12438;DHT22;6283;51.330;12.374;2023-06-26T02:05:43;20.80;1.00
12438;DHT22;6283;51.330;12.374;2023-06-26T02:08:10;20.80;1.00
12438;DHT22;6283;51.330;12.374;2023-06-26T02:10:36;20.80;1.00
12438;DHT22;6283;51.330;12.374;2023-06-26T02:13:01;20.80;1.00
12438;DHT22;6283;51.330;12.374;2023-06-26T02:15:27;20.70;1.00
12438;DHT22;6283;51.330;12.374;2023-06-26T02:17:52;20.80;1.00
12438;DHT22;6283;51.330;12.374;2023-06-26T02:20:18;20.70;1.00
12438;DHT22;6283;51.330;12.374;2023-06-26T02:22:44;20.70;1.00
12438;DHT22;6283;51.330;12.374;2023-06-26T02:25:10;20.70;1.00
12438;DHT22;6283;51.330;12.374;2023-06-26T02:27:38;20.70;1.00
12438;DHT22;6283;51.330;12.374;2023-06-26T02:30:03;20.60;1.00
12438;DHT22;6283;51.330;12.374;2023-06-26T02:32:29;20.60;1.00
12438;DHT22;6283;51.330;12.374;2023-06-26T02:34:55;20.60;1.00
12438;DHT22;6283;51.330;12.374;2023-06-26T02:37:20;20.60;1.00
12438;DHT22;6283;51.330;12.374;2023-06-26T02:39:46;20.60;1.00
12438;DHT22;6283;51.330;12.374;2023-06-26T02:42:12;20.50;1.00
12438;DHT22;6283;51.330;12.374;2023-06-26T02:44:37;20.50;1.00
12438;DHT22;6283;51.330;12.374;2023-06-26T02:47:03;20.50;1.00
12438;DHT22;6283;51.330;12.374;2023-06-26T02:49:29;20.50;1.00
12438;DHT22;6283;51.330;12.374;2023-06-26T02:51:55;20.40;1.00
12438;DHT22;6283;51.330;12.374;2023-06-26T02:54:20;20.40;1.00
12438;DHT22;6283;51.330;12.374;2023-06-26T02:56:46;20.40;1.00
12438;DHT22;6283;51.330;12.374;2023-06-26T02:59:11;20.40;1.00
12438;DHT22;6283;51.330;12.374;2023-06-26T03:01:37;20.40;1.00
12438;DHT22;6283;51.330;12.374;2023-06-26T03:04:03;20.30;1.00
12438;DHT22;6283;51.330;12.374;2023-06-26T03:06:29;20.30;1.00
12438;DHT22;6283;51.330;12.374;2023-06-26T03:08:55;20.20;1.00
12438;DHT22;6283;51.330;12.374;2023-06-26T03:11:20;20.20;1.00
12438;DHT22;6283;51.330;12.374;2023-06-26T03:13:46;20.20;1.00
12438;DHT22;6283;51.330;12.374;2023-06-26T03:16:12;20.20;1.00
12438;DHT22;6283;51.330;12.374;2023-06-26T03:18:38;20.20;1.00
12438;DHT22;6283;51.330;12.374;2023-06-26T03:21:04;20.20;1.00
12438;DHT22;6283;51.330;12.374;2023-06-26T03:23:30;20.20;1.00
12438;DHT22;6283;51.330;12.374;2023-06-26T03:25:55;20.20;1.00
12438;DHT22;6283;51.330;12.374;2023-06-26T03:28:21;20.20;1.00
12438;DHT22;6283;51.330;12.374;2023-06-26T03:30:46;20.10;1.00
12438;DHT22;6283;51.330;12.374;2023-06-26T03:33:12;20.20;1.00
12438;DHT22;6283;51.330;12.374;2023-06-26T03:35:38;20.10;1.00
12438;DHT22;6283;51.330;12.374;2023-06-26T03:38:04;20.10;1.00
12438;DHT22;6283;51.330;12.374;2023-06-26T03:40:30;20.10;1.00
12438;DHT22;6283;51.330;12.374;2023-06-26T03:42:56;20.10;1.00
12438;DHT22;6283;51.330;12.374;2023-06-26T03:45:21;20.10;1.00
12438;DHT22;6283;51.330;12.374;2023-06-26T03:47:47;20.10;1.00
12438;DHT22;6283;51.330;12.374;2023-06-26T03:50:18;20.10;1.00
12438;DHT22;6283;51.330;12.374;2023-06-26T03:52:43;20.10;1.00
12438;DHT22;6283;51.330;12.374;2023-06-26T03:55:09;20.10;1.00
12438;DHT22;6283;51.330;12.374;2023-06-26T03:57:35;20.10;1.00
12438;DHT22;6283;51.330;12.374;2023-06-26T04:00:01;20.10;1.00
12438;DHT22;6283;51.330;12.374;2023-06-26T04:02:26;20.10;1.00
12438;DHT22;6283;51.330;12.374;2023-06-26T04:04:52;20.10;1.00
12438;DHT22;6283;51.330;12.374;2023-06-26T04:07:19;20.20;1.00
12438;DHT22;6283;51.330;12.374;2023-06-26T04:09:44;20.20;1.00
12438;DHT22;6283;51.330;12.374;2023-06-26T04:12:10;20.20;1.00
12438;DHT22;6283;51.330;12.374;2023-06-26T04:14:36;20.20;1.00
12438;DHT22;6283;51.330;12.374;2023-06-26T04:17:02;20.30;1.00
12438;DHT22;6283;51.330;12.374;2023-06-26T04:19:29;20.30;1.00
12438;DHT22;6283;51.330;12.374;2023-06-26T04:21:55;20.40;1.00
12438;DHT22;6283;51.330;12.374;2023-06-26T04:24:20;20.40;1.00
12438;DHT22;6283;51.330;12.374;2023-06-26T04:26:46;20.50;1.00
12438;DHT22;6283;51.330;12.374;2023-06-26T04:29:12;20.60;1.00
12438;DHT22;6283;51.330;12.374;2023-06-26T04:31:38;20.60;1.00
12438;DHT22;6283;51.330;12.374;2023-06-26T04:34:04;20.70;1.00
12438;DHT22;6283;51.330;12.374;2023-06-26T04:36:30;20.70;1.00
12438;DHT22;6283;51.330;12.374;2023-06-26T04:38:57;20.80;1.00
12438;DHT22;6283;51.330;12.374;2023-06-26T04:41:24;20.90;1.00
12438;DHT22;6283;51.330;12.374;2023-06-26T04:43:50;20.90;1.00
12438;DHT22;6283;51.330;12.374;2023-06-26T04:46:16;21.00;1.00
12438;DHT22;6283;51.330;12.374;2023-06-26T04:48:41;21.10;1.00
12438;DHT22;6283;51.330;12.374;2023-06-26T04:51:08;21.10;1.00
12438;DHT22;6283;51.330;12.374;2023-06-26T04:53:33;21.10;1.00
12438;DHT22;6283;51.330;12.374;2023-06-26T04:55:59;21.20;1.00
12438;DHT22;6283;51.330;12.374;2023-06-26T04:58:24;21.20;1.00
12438;DHT22;6283;51.330;12.374;2023-06-26T05:00:50;21.30;1.00
12438;DHT22;6283;51.330;12.374;2023-06-26T05:03:17;21.30;1.00
12438;DHT22;6283;51.330;12.374;2023-06-26T05:05:43;21.30;1.00
12438;DHT22;6283;51.330;12.374;2023-06-26T05:08:21;21.40;1.00
12438;DHT22;6283;51.330;12.374;2023-06-26T05:10:48;21.50;1.00
12438;DHT22;6283;51.330;12.374;2023-06-26T05:13:14;21.50;1.00
12438;DHT22;6283;51.330;12.374;2023-06-26T05:15:43;21.60;1.00
12438;DHT22;6283;51.330;12.374;2023-06-26T05:18:09;21.80;1.00
12438;DHT22;6283;51.330;12.374;2023-06-26T05:20:36;21.90;1.00
12438;DHT22;6283;51.330;12.374;2023-06-26T05:23:05;21.90;1.00
12438;DHT22;6283;51.330;12.374;2023-06-26T05:25:31;22.00;1.00
12438;DHT22;6283;51.330;12.374;2023-06-26T05:27:58;22.10;1.00
12438;DHT22;6283;51.330;12.374;2023-06-26T05:30:25;22.10;1.00
12438;DHT22;6283;51.330;12.374;2023-06-26T05:32:52;22.20;1.00
12438;DHT22;6283;51.330;12.374;2023-06-26T05:35:19;22.30;1.00
12438;DHT22;6283;51.330;12.374;2023-06-26T05:37:50;22.30;1.00
12438;DHT22;6283;51.330;12.374;2023-06-26T05:40:17;22.40;1.00
12438;DHT22;6283;51.330;12.374;2023-06-26T05:42:44;22.40;1.00
12438;DHT22;6283;51.330;12.374;2023-06-26T05:45:10;22.50;1.00
12438;DHT22;6283;51.330;12.374;2023-06-26T05:47:36;22.60;1.00
12438;DHT22;6283;51.330;12.374;2023-06-26T05:50:03;22.60;1.00
12438;DHT22;6283;51.330;12.374;2023-06-26T05:52:29;22.60;1.00
12438;DHT22;6283;51.330;12.374;2023-06-26T05:54:56;22.70;1.00
12438;DHT22;6283;51.330;12.374;2023-06-26T05:57:28;22.70;1.00
12438;DHT22;6283;51.330;12.374;2023-06-26T05:59:55;22.70;1.00
12438;DHT22;6283;51.330;12.374;2023-06-26T06:02:21;22.70;1.00
12438;DHT22;6283;51.330;12.374;2023-06-26T06:04:46;22.80;1.00
12438;DHT22;6283;51.330;12.374;2023-06-26T06:07:12;22.80;1.00
12438;DHT22;6283;51.330;12.374;2023-06-26T06:09:38;22.90;1.00
12438;DHT22;6283;51.330;12.374;2023-06-26T06:12:05;23.10;1.00
12438;DHT22;6283;51.330;12.374;2023-06-26T06:14:34;23.20;1.00
12438;DHT22;6283;51.330;12.374;2023-06-26T06:17:00;23.20;1.00
12438;DHT22;6283;51.330;12.374;2023-06-26T06:19:26;23.30;1.00
12438;DHT22;6283;51.330;12.374;2023-06-26T06:21:52;23.30;1.00
12438;DHT22;6283;51.330;12.374;2023-06-26T06:24:20;23.40;1.00
12438;DHT22;6283;51.330;12.374;2023-06-26T06:26:46;23.40;1.00
12438;DHT22;6283;51.330;12.374;2023-06-26T06:29:11;23.50;1.00
12438;DHT22;6283;51.330;12.374;2023-06-26T06:31:37;23.60;1.00
12438;DHT22;6283;51.330;12.374;2023-06-26T06:34:05;23.60;1.00
12438;DHT22;6283;51.330;12.374;2023-06-26T06:36:31;23.60;1.00
12438;DHT22;6283;51.330;12.374;2023-06-26T06:38:57;23.70;1.00
12438;DHT22;6283;51.330;12.374;2023-06-26T06:41:22;23.70;1.00
12438;DHT22;6283;51.330;12.374;2023-06-26T06:43:48;23.70;1.00
12438;DHT22;6283;51.330;12.374;2023-06-26T06:46:13;23.80;1.00
12438;DHT22;6283;51.330;12.374;2023-06-26T06:48:39;23.90;1.00
12438;DHT22;6283;51.330;12.374;2023-06-26T06:51:05;24.00;1.00
12438;DHT22;6283;51.330;12.374;2023-06-26T06:53:31;24.00;1.00
12438;DHT22;6283;51.330;12.374;2023-06-26T06:55:57;24.00;1.00
12438;DHT22;6283;51.330;12.374;2023-06-26T06:58:22;24.00;1.00
12438;DHT22;6283;51.330;12.374;2023-06-26T07:00:49;24.10;1.00
12438;DHT22;6283;51.330;12.374;2023-06-26T07:03:16;24.10;1.00
12438;DHT22;6283;51.330;12.374;2023-06-26T07:05:46;24.20;1.00
12438;DHT22;6283;51.330;12.374;2023-06-26T07:08:14;24.40;1.00
12438;DHT22;6283;51.330;12.374;2023-06-26T07:10:40;24.40;1.00
12438;DHT22;6283;51.330;12.374;2023-06-26T07:13:06;24.50;1.00
12438;DHT22;6283;51.330;12.374;2023-06-26T07:15:31;24.50;1.00
12438;DHT22;6283;51.330;12.374;2023-06-26T07:17:57;24.50;1.00
12438;DHT22;6283;51.330;12.374;2023-06-26T07:20:23;24.70;1.00
12438;DHT22;6283;51.330;12.374;2023-06-26T07:22:49;24.80;1.00
12438;DHT22;6283;51.330;12.374;2023-06-26T07:25:15;24.90;1.00
12438;DHT22;6283;51.330;12.374;2023-06-26T07:27:41;25.00;1.00
12438;DHT22;6283;51.330;12.374;2023-06-26T07:30:07;25.10;1.00
12438;DHT22;6283;51.330;12.374;2023-06-26T07:32:37;25.10;1.00
12438;DHT22;6283;51.330;12.374;2023-06-26T07:35:03;25.10;1.00
12438;DHT22;6283;51.330;12.374;2023-06-26T07:37:28;25.20;1.00
12438;DHT22;6283;51.330;12.374;2023-06-26T07:39:54;25.20;1.00
12438;DHT22;6283;51.330;12.374;2023-06-26T07:42:20;25.20;1.00
12438;DHT22;6283;51.330;12.374;2023-06-26T07:44:46;25.30;1.00
12438;DHT22;6283;51.330;12.374;2023-06-26T07:47:11;25.30;1.00
12438;DHT22;6283;51.330;12.374;2023-06-26T07:49:37;25.40;1.00
12438;DHT22;6283;51.330;12.374;2023-06-26T07:52:07;25.50;1.00
12438;DHT22;6283;51.330;12.374;2023-06-26T07:54:32;25.40;1.00
12438;DHT22;6283;51.330;12.374;2023-06-26T07:57:03;25.50;1.00
12438;DHT22;6283;51.330;12.374;2023-06-26T07:59:32;25.50;1.00
12438;DHT22;6283;51.330;12.374;2023-06-26T08:01:58;25.60;1.00
12438;DHT22;6283;51.330;12.374;2023-06-26T08:04:26;25.70;1.00
12438;DHT22;6283;51.330;12.374;2023-06-26T08:06:53;25.70;1.00
12438;DHT22;6283;51.330;12.374;2023-06-26T08:09:21;25.80;1.00
12438;DHT22;6283;51.330;12.374;2023-06-26T08:11:47;26.00;1.00
12438;DHT22;6283;51.330;12.374;2023-06-26T08:14:14;26.10;1.00
12438;DHT22;6283;51.330;12.374;2023-06-26T08:16:41;26.10;1.00
12438;DHT22;6283;51.330;12.374;2023-06-26T08:19:07;26.20;1.00
12438;DHT22;6283;51.330;12.374;2023-06-26T08:21:33;26.30;1.00
12438;DHT22;6283;51.330;12.374;2023-06-26T08:23:59;26.40;1.00
12438;DHT22;6283;51.330;12.374;2023-06-26T08:26:24;26.40;1.00
12438;DHT22;6283;51.330;12.374;2023-06-26T08:28:50;26.50;1.00
12438;DHT22;6283;51.330;12.374;2023-06-26T08:31:16;26.50;1.00
12438;DHT22;6283;51.330;12.374;2023-06-26T08:33:42;26.60;1.00
12438;DHT22;6283;51.330;12.374;2023-06-26T08:36:08;26.70;1.00
12438;DHT22;6283;51.330;12.374;2023-06-26T08:38:33;26.80;1.00
12438;DHT22;6283;51.330;12.374;2023-06-26T08:40:59;26.90;1.00
12438;DHT22;6283;51.330;12.374;2023-06-26T08:43:26;27.00;1.00
12438;DHT22;6283;51.330;12.374;2023-06-26T08:45:52;27.10;1.00
12438;DHT22;6283;51.330;12.374;2023-06-26T08:48:18;27.10;1.00
12438;DHT22;6283;51.330;12.374;2023-06-26T08:50:48;27.20;1.00
12438;DHT22;6283;51.330;12.374;2023-06-26T08:56:03;27.40;1.00
12438;DHT22;6283;51.330;12.374;2023-06-26T08:58:30;27.60;1.00
12438;DHT22;6283;51.330;12.374;2023-06-26T09:00:56;27.70;1.00
12438;DHT22;6283;51.330;12.374;2023-06-26T09:03:23;27.70;1.00
12438;DHT22;6283;51.330;12.374;2023-06-26T09:05:50;27.80;1.00
12438;DHT22;6283;51.330;12.374;2023-06-26T09:08:16;27.80;1.00
12438;DHT22;6283;51.330;12.374;2023-06-26T09:10:41;28.00;1.00
12438;DHT22;6283;51.330;12.374;2023-06-26T09:13:07;28.10;1.00
12438;DHT22;6283;51.330;12.374;2023-06-26T09:15:42;28.10;1.00
12438;DHT22;6283;51.330;12.374;2023-06-26T09:18:08;28.20;1.00
12438;DHT22;6283;51.330;12.374;2023-06-26T09:20:34;28.20;1.00
12438;DHT22;6283;51.330;12.374;2023-06-26T09:23:00;28.30;1.00
12438;DHT22;6283;51.330;12.374;2023-06-26T09:25:27;28.40;1.00
12438;DHT22;6283;51.330;12.374;2023-06-26T09:27:54;28.50;1.00
12438;DHT22;6283;51.330;12.374;2023-06-26T09:30:20;28.60;1.00
12438;DHT22;6283;51.330;12.374;2023-06-26T09:32:46;28.70;1.00
12438;DHT22;6283;51.330;12.374;2023-06-26T09:35:12;28.70;1.00
12438;DHT22;6283;51.330;12.374;2023-06-26T09:37:38;28.80;1.00
12438;DHT22;6283;51.330;12.374;2023-06-26T09:40:04;28.80;1.00
12438;DHT22;6283;51.330;12.374;2023-06-26T09:42:33;28.90;1.00
12438;DHT22;6283;51.330;12.374;2023-06-26T09:44:59;29.00;1.00
12438;DHT22;6283;51.330;12.374;2023-06-26T09:47:25;29.00;1.00
12438;DHT22;6283;51.330;12.374;2023-06-26T09:49:51;29.10;1.00
12438;DHT22;6283;51.330;12.374;2023-06-26T09:52:18;29.10;1.00
12438;DHT22;6283;51.330;12.374;2023-06-26T09:54:45;29.10;1.00
12438;DHT22;6283;51.330;12.374;2023-06-26T09:57:16;29.10;1.00
12438;DHT22;6283;51.330;12.374;2023-06-26T09:59:43;29.20;1.00
12438;DHT22;6283;51.330;12.374;2023-06-26T10:02:11;29.30;1.00
12438;DHT22;6283;51.330;12.374;2023-06-26T10:04:37;29.40;1.00
12438;DHT22;6283;51.330;12.374;2023-06-26T10:07:08;29.50;1.00
12438;DHT22;6283;51.330;12.374;2023-06-26T10:09:39;29.60;1.00
12438;DHT22;6283;51.330;12.374;2023-06-26T10:12:08;29.60;1.00
12438;DHT22;6283;51.330;12.374;2023-06-26T10:14:37;29.70;1.00
12438;DHT22;6283;51.330;12.374;2023-06-26T10:17:09;29.70;1.00
12438;DHT22;6283;51.330;12.374;2023-06-26T10:19:39;29.70;1.00
12438;DHT22;6283;51.330;12.374;2023-06-26T10:22:09;29.80;1.00
12438;DHT22;6283;51.330;12.374;2023-06-26T10:24:37;29.80;1.00
12438;DHT22;6283;51.330;12.374;2023-06-26T10:27:16;29.90;1.00
12438;DHT22;6283;51.330;12.374;2023-06-26T10:29:53;30.00;1.00
12438;DHT22;6283;51.330;12.374;2023-06-26T10:32:20;30.00;1.00
12438;DHT22;6283;51.330;12.374;2023-06-26T10:34:47;30.10;1.00
12438;DHT22;6283;51.330;12.374;2023-06-26T10:37:12;30.10;1.00
12438;DHT22;6283;51.330;12.374;2023-06-26T10:39:50;30.00;1.00
12438;DHT22;6283;51.330;12.374;2023-06-26T10:42:18;30.00;1.00
12438;DHT22;6283;51.330;12.374;2023-06-26T10:44:46;30.00;1.00
12438;DHT22;6283;51.330;12.374;2023-06-26T10:50:27;30.30;1.00
12438;DHT22;6283;51.330;12.374;2023-06-26T10:53:14;30.60;1.00
12438;DHT22;6283;51.330;12.374;2023-06-26T10:55:49;30.60;1.00
12438;DHT22;6283;51.330;12.374;2023-06-26T11:01:15;30.60;1.00
12438;DHT22;6283;51.330;12.374;2023-06-26T11:03:43;30.70;1.00
12438;DHT22;6283;51.330;12.374;2023-06-26T11:06:18;30.80;1.00
12438;DHT22;6283;51.330;12.374;2023-06-26T11:08:45;30.90;1.00
12438;DHT22;6283;51.330;12.374;2023-06-26T11:11:12;30.90;1.00
12438;DHT22;6283;51.330;12.374;2023-06-26T11:13:39;30.90;1.00
12438;DHT22;6283;51.330;12.374;2023-06-26T11:16:05;30.90;1.00
12438;DHT22;6283;51.330;12.374;2023-06-26T11:18:34;30.80;1.00
12438;DHT22;6283;51.330;12.374;2023-06-26T11:21:11;30.90;1.00
12438;DHT22;6283;51.330;12.374;2023-06-26T11:23:39;31.00;1.00
12438;DHT22;6283;51.330;12.374;2023-06-26T11:26:18;31.00;1.00
12438;DHT22;6283;51.330;12.374;2023-06-26T11:28:51;31.10;1.00
12438;DHT22;6283;51.330;12.374;2023-06-26T11:31:30;31.30;1.00
12438;DHT22;6283;51.330;12.374;2023-06-26T11:33:56;31.30;1.00
12438;DHT22;6283;51.330;12.374;2023-06-26T11:36:24;31.30;1.00
12438;DHT22;6283;51.330;12.374;2023-06-26T11:38:57;31.20;1.00
12438;DHT22;6283;51.330;12.374;2023-06-26T11:41:25;31.30;1.00
12438;DHT22;6283;51.330;12.374;2023-06-26T11:43:51;31.40;1.00
12438;DHT22;6283;51.330;12.374;2023-06-26T11:46:18;31.80;1.00
12438;DHT22;6283;51.330;12.374;2023-06-26T11:48:44;32.20;1.00
12438;DHT22;6283;51.330;12.374;2023-06-26T11:51:15;32.30;1.00
12438;DHT22;6283;51.330;12.374;2023-06-26T11:53:47;32.40;1.00
12438;DHT22;6283;51.330;12.374;2023-06-26T11:56:17;32.60;1.00
12438;DHT22;6283;51.330;12.374;2023-06-26T11:59:05;32.60;1.00
12438;DHT22;6283;51.330;12.374;2023-06-26T12:01:35;32.60;1.00
12438;DHT22;6283;51.330;12.374;2023-06-26T12:04:03;32.70;1.00
12438;DHT22;6283;51.330;12.374;2023-06-26T12:06:31;33.10;1.00
12438;DHT22;6283;51.330;12.374;2023-06-26T12:08:58;33.50;1.00
12438;DHT22;6283;51.330;12.374;2023-06-26T12:11:24;33.80;1.00
12438;DHT22;6283;51.330;12.374;2023-06-26T12:13:51;34.20;1.00
12438;DHT22;6283;51.330;12.374;2023-06-26T12:16:17;34.50;1.00
12438;DHT22;6283;51.330;12.374;2023-06-26T12:18:42;34.90;1.00
12438;DHT22;6283;51.330;12.374;2023-06-26T12:21:08;34.80;1.00
12438;DHT22;6283;51.330;12.374;2023-06-26T12:23:58;34.70;1.00
12438;DHT22;6283;51.330;12.374;2023-06-26T12:26:26;34.60;1.00
12438;DHT22;6283;51.330;12.374;2023-06-26T12:28:52;34.70;1.00
12438;DHT22;6283;51.330;12.374;2023-06-26T12:31:20;34.60;1.00
12438;DHT22;6283;51.330;12.374;2023-06-26T12:33:47;34.50;1.00
12438;DHT22;6283;51.330;12.374;2023-06-26T12:36:13;34.50;1.00
12438;DHT22;6283;51.330;12.374;2023-06-26T12:38:42;34.50;1.00
12438;DHT22;6283;51.330;12.374;2023-06-26T12:41:13;34.50;1.00
12438;DHT22;6283;51.330;12.374;2023-06-26T12:43:40;34.60;1.00
12438;DHT22;6283;51.330;12.374;2023-06-26T12:46:06;34.60;1.00
12438;DHT22;6283;51.330;12.374;2023-06-26T12:48:42;34.50;1.00
12438;DHT22;6283;51.330;12.374;2023-06-26T12:51:17;34.40;1.00
12438;DHT22;6283;51.330;12.374;2023-06-26T12:53:46;34.10;1.00
12438;DHT22;6283;51.330;12.374;2023-06-26T12:56:11;33.80;1.00
12438;DHT22;6283;51.330;12.374;2023-06-26T12:58:37;33.60;1.00
12438;DHT22;6283;51.330;12.374;2023-06-26T13:01:06;33.50;1.00
12438;DHT22;6283;51.330;12.374;2023-06-26T13:03:36;33.40;1.00
12438;DHT22;6283;51.330;12.374;2023-06-26T13:06:02;33.50;1.00
12438;DHT22;6283;51.330;12.374;2023-06-26T13:08:28;33.90;1.00
12438;DHT22;6283;51.330;12.374;2023-06-26T13:10:54;34.00;1.00
12438;DHT22;6283;51.330;12.374;2023-06-26T13:13:20;34.00;1.00
12438;DHT22;6283;51.330;12.374;2023-06-26T13:15:45;34.10;1.00
12438;DHT22;6283;51.330;12.374;2023-06-26T13:18:11;34.10;1.00
12438;DHT22;6283;51.330;12.374;2023-06-26T13:20:36;33.90;1.00
12438;DHT22;6283;51.330;12.374;2023-06-26T13:23:02;33.70;1.00
12438;DHT22;6283;51.330;12.374;2023-06-26T13:25:28;33.70;1.00
12438;DHT22;6283;51.330;12.374;2023-06-26T13:27:54;33.80;1.00
12438;DHT22;6283;51.330;12.374;2023-06-26T13:30:19;34.20;1.00
12438;DHT22;6283;51.330;12.374;2023-06-26T13:32:45;34.50;1.00
12438;DHT22;6283;51.330;12.374;2023-06-26T13:35:11;34.70;1.00
12438;DHT22;6283;51.330;12.374;2023-06-26T13:37:40;35.10;1.00
12438;DHT22;6283;51.330;12.374;2023-06-26T13:40:07;35.30;1.00
12438;DHT22;6283;51.330;12.374;2023-06-26T13:42:34;35.50;1.00
12438;DHT22;6283;51.330;12.374;2023-06-26T13:45:03;35.60;1.00
12438;DHT22;6283;51.330;12.374;2023-06-26T13:47:29;35.70;1.00
12438;DHT22;6283;51.330;12.374;2023-06-26T13:49:55;35.70;1.00
12438;DHT22;6283;51.330;12.374;2023-06-26T13:52:20;35.60;1.00
12438;DHT22;6283;51.330;12.374;2023-06-26T13:54:46;35.20;1.00
12438;DHT22;6283;51.330;12.374;2023-06-26T13:57:12;34.70;1.00
12438;DHT22;6283;51.330;12.374;2023-06-26T13:59:38;34.30;1.00
12438;DHT22;6283;51.330;12.374;2023-06-26T14:02:16;33.80;1.00
12438;DHT22;6283;51.330;12.374;2023-06-26T14:05:01;33.20;1.00
12438;DHT22;6283;51.330;12.374;2023-06-26T14:07:28;32.70;1.00
12438;DHT22;6283;51.330;12.374;2023-06-26T14:09:54;32.30;1.00
12438;DHT22;6283;51.330;12.374;2023-06-26T14:12:19;31.60;1.00
12438;DHT22;6283;51.330;12.374;2023-06-26T14:14:45;30.60;1.00
12438;DHT22;6283;51.330;12.374;2023-06-26T14:17:10;29.60;1.00
12438;DHT22;6283;51.330;12.374;2023-06-26T14:19:44;28.80;1.00
12438;DHT22;6283;51.330;12.374;2023-06-26T14:22:11;28.10;1.00
12438;DHT22;6283;51.330;12.374;2023-06-26T14:24:36;27.80;1.00
12438;DHT22;6283;51.330;12.374;2023-06-26T14:27:02;27.60;1.00
12438;DHT22;6283;51.330;12.374;2023-06-26T14:29:28;27.60;1.00
12438;DHT22;6283;51.330;12.374;2023-06-26T14:31:53;27.50;1.00
12438;DHT22;6283;51.330;12.374;2023-06-26T14:34:19;27.40;1.00
12438;DHT22;6283;51.330;12.374;2023-06-26T14:36:48;27.30;1.00
12438;DHT22;6283;51.330;12.374;2023-06-26T14:39:13;27.40;1.00
12438;DHT22;6283;51.330;12.374;2023-06-26T14:41:39;27.70;1.00
12438;DHT22;6283;51.330;12.374;2023-06-26T14:44:05;28.00;1.00
12438;DHT22;6283;51.330;12.374;2023-06-26T14:46:33;28.50;1.00
12438;DHT22;6283;51.330;12.374;2023-06-26T14:48:59;28.80;1.00
12438;DHT22;6283;51.330;12.374;2023-06-26T14:51:25;29.10;1.00
12438;DHT22;6283;51.330;12.374;2023-06-26T14:53:51;29.30;1.00
12438;DHT22;6283;51.330;12.374;2023-06-26T14:56:17;29.40;1.00
12438;DHT22;6283;51.330;12.374;2023-06-26T14:58:42;29.40;1.00
12438;DHT22;6283;51.330;12.374;2023-06-26T15:01:08;29.40;1.00
12438;DHT22;6283;51.330;12.374;2023-06-26T15:03:34;29.40;1.00
12438;DHT22;6283;51.330;12.374;2023-06-26T15:06:00;29.50;1.00
12438;DHT22;6283;51.330;12.374;2023-06-26T15:08:25;29.60;1.00
12438;DHT22;6283;51.330;12.374;2023-06-26T15:10:51;29.60;1.00
12438;DHT22;6283;51.330;12.374;2023-06-26T15:13:16;29.80;1.00
12438;DHT22;6283;51.330;12.374;2023-06-26T15:15:42;30.00;1.00
12438;DHT22;6283;51.330;12.374;2023-06-26T15:18:08;30.40;1.00
12438;DHT22;6283;51.330;12.374;2023-06-26T15:20:33;30.90;1.00
12438;DHT22;6283;51.330;12.374;2023-06-26T15:22:59;30.90;1.00
12438;DHT22;6283;51.330;12.374;2023-06-26T15:25:25;30.50;1.00
12438;DHT22;6283;51.330;12.374;2023-06-26T15:27:51;29.90;1.00
12438;DHT22;6283;51.330;12.374;2023-06-26T15:30:16;29.40;1.00
12438;DHT22;6283;51.330;12.374;2023-06-26T15:32:42;29.00;1.00
12438;DHT22;6283;51.330;12.374;2023-06-26T15:35:09;28.50;1.00
12438;DHT22;6283;51.330;12.374;2023-06-26T15:37:34;28.20;1.00
12438;DHT22;6283;51.330;12.374;2023-06-26T15:40:00;28.00;1.00
12438;DHT22;6283;51.330;12.374;2023-06-26T15:42:27;27.90;1.00
12438;DHT22;6283;51.330;12.374;2023-06-26T15:44:56;27.70;1.00
12438;DHT22;6283;51.330;12.374;2023-06-26T15:47:22;27.30;1.00
12438;DHT22;6283;51.330;12.374;2023-06-26T15:49:47;26.90;1.00
12438;DHT22;6283;51.330;12.374;2023-06-26T15:52:13;26.60;1.00
12438;DHT22;6283;51.330;12.374;2023-06-26T15:54:39;26.40;1.00
12438;DHT22;6283;51.330;12.374;2023-06-26T15:57:04;26.20;1.00